Time;durP1;ratioP1;P1;durP2;ratioP2;P2;SDS_P1;SDS_P2;PMS_P1;PMS_P2;Temp;Humidity;BMP_temperature;BMP_pressure;BME280_temperature;BME280_humidity;BME280_pressure;Samples;Min_cycle;Max_cycle;Signal;HPM_P1;HPM_P2
2023/07/10 00:00:16;;;;;;;15.25;9.23;;;;;;;20.76;100.00;101841.38;5065625;28;20032;-86
2023/07/10 00:02:42;;;;;;;14.73;8.00;;;;;;;20.91;100.00;101839.16;5059336;28;20110;-87
2023/07/10 00:05:18;;;;;;;9.40;7.75;;;;;;;20.85;100.00;101836.00;5064713;28;20039;-87
2023/07/10 00:07:47;;;;;;;13.90;8.45;;;;;;;20.86;100.00;101831.91;5067196;28;20032;-87
2023/07/10 00:10:14;;;;;;;16.05;10.80;;;;;;;20.73;100.00;101833.72;5059876;28;20039;-86
2023/07/10 00:12:41;;;;;;;16.77;9.23;;;;;;;20.69;100.00;101838.63;5060374;28;20498;-87
2023/07/10 00:15:18;;;;;;;14.68;9.73;;;;;;;20.55;100.00;101833.09;5048732;28;20036;-87
2023/07/10 00:17:45;;;;;;;19.92;11.77;;;;;;;20.27;100.00;101824.44;5075421;28;20116;-86
2023/07/10 00:20:16;;;;;;;20.92;9.82;;;;;;;20.57;100.00;101819.25;5070771;28;20040;-87
2023/07/10 00:22:41;;;;;;;16.42;9.52;;;;;;;20.60;100.00;101813.56;5055862;28;20457;-87
2023/07/10 00:25:07;;;;;;;12.77;9.23;;;;;;;20.48;100.00;101829.09;5056166;28;20075;-87
2023/07/10 00:27:32;;;;;;;11.48;8.32;;;;;;;20.64;100.00;101836.25;5054175;28;20512;-86
2023/07/10 00:29:58;;;;;;;19.30;11.40;;;;;;;20.31;100.00;101818.72;5056768;28;20029;-87
2023/07/10 00:32:23;;;;;;;14.63;9.95;;;;;;;20.42;100.00;101825.09;5055082;28;20029;-87
2023/07/10 00:34:49;;;;;;;15.15;8.23;;;;;;;20.30;100.00;101817.09;5049815;28;20034;-87
2023/07/10 00:37:14;;;;;;;14.35;8.75;;;;;;;20.34;100.00;101817.88;5055295;28;20032;-86
2023/07/10 00:39:40;;;;;;;17.10;9.05;;;;;;;20.49;100.00;101813.66;5048354;28;20111;-86
2023/07/10 00:42:18;;;;;;;13.73;9.55;;;;;;;20.48;100.00;101828.28;5054166;28;20039;-87
2023/07/10 00:44:53;;;;;;;17.02;9.85;;;;;;;20.47;100.00;101832.34;5067333;28;20680;-86
2023/07/10 00:47:26;;;;;;;15.82;9.43;;;;;;;20.16;100.00;101823.75;5075124;28;20032;-87
2023/07/10 00:50:01;;;;;;;13.13;7.97;;;;;;;20.39;100.00;101823.09;5057086;28;20404;-86
2023/07/10 00:52:32;;;;;;;13.30;7.60;;;;;;;20.48;100.00;101825.44;5052585;28;20465;-86
2023/07/10 00:55:00;;;;;;;12.93;8.90;;;;;;;20.60;100.00;101818.44;5052828;28;20032;-85
2023/07/10 00:57:35;;;;;;;14.23;7.93;;;;;;;20.44;100.00;101816.16;5074188;28;20566;-86
2023/07/10 01:00:14;;;;;;;10.63;7.32;;;;;;;20.57;100.00;101828.56;5062558;28;20909;-86
2023/07/10 01:02:40;;;;;;;15.13;8.95;;;;;;;20.66;100.00;101842.31;5062865;28;20514;-86
2023/07/10 01:05:06;;;;;;;16.90;8.07;;;;;;;20.43;100.00;101826.72;5059807;28;20055;-86
2023/07/10 01:07:40;;;;;;;12.18;7.38;;;;;;;20.51;100.00;101828.25;5061490;28;20561;-86
2023/07/10 01:10:08;;;;;;;16.05;7.85;;;;;;;20.59;100.00;101817.63;5075093;28;20034;-86
2023/07/10 01:12:34;;;;;;;17.42;8.50;;;;;;;20.55;100.00;101813.16;5061214;28;20040;-86
2023/07/10 01:15:00;;;;;;;10.52;7.15;;;;;;;20.55;100.00;101824.56;5056801;28;20028;-85
2023/07/10 01:17:25;;;;;;;8.98;6.63;;;;;;;20.67;100.00;101832.56;5062947;28;20098;-86
2023/07/10 01:19:58;;;;;;;8.35;5.80;;;;;;;20.60;100.00;101829.81;5056159;28;20036;-85
2023/07/10 01:22:24;;;;;;;11.60;6.75;;;;;;;20.54;100.00;101826.59;5057195;28;20042;-86
2023/07/10 01:24:52;;;;;;;9.88;6.72;;;;;;;20.50;100.00;101831.50;5061721;28;20040;-86
2023/07/10 01:27:20;;;;;;;11.60;6.82;;;;;;;20.44;100.00;101821.84;5057154;28;20028;-85
2023/07/10 01:30:02;;;;;;;10.65;6.85;;;;;;;20.49;100.00;101825.03;5053581;28;20119;-86
2023/07/10 01:32:28;;;;;;;11.40;6.25;;;;;;;20.41;100.00;101825.53;5060164;28;20147;-86
2023/07/10 01:34:58;;;;;;;13.15;6.00;;;;;;;20.32;100.00;101826.00;5058507;28;20110;-86
2023/07/10 01:37:24;;;;;;;13.32;6.90;;;;;;;20.53;100.00;101842.03;5050913;28;20032;-86
2023/07/10 01:39:52;;;;;;;12.07;6.82;;;;;;;20.42;100.00;101829.97;5058167;28;20042;-86
2023/07/10 01:42:18;;;;;;;11.57;6.93;;;;;;;20.49;100.00;101842.09;5056135;28;20457;-86
2023/07/10 01:44:46;;;;;;;12.25;6.88;;;;;;;20.44;100.00;101834.00;5054574;28;20503;-86
2023/07/10 01:47:12;;;;;;;12.10;6.05;;;;;;;20.39;100.00;101831.63;5063367;28;20103;-86
2023/07/10 01:49:49;;;;;;;12.32;6.15;;;;;;;20.48;100.00;101833.97;5059759;28;20397;-86
2023/07/10 01:52:16;;;;;;;10.10;5.63;;;;;;;20.37;100.00;101817.03;5059073;28;20499;-86
2023/07/10 01:54:42;;;;;;;8.70;5.13;;;;;;;20.36;100.00;101804.03;5060671;28;20032;-86
2023/07/10 01:57:09;;;;;;;7.68;5.35;;;;;;;20.35;100.00;101807.31;5055038;28;20028;-86
2023/07/10 01:59:35;;;;;;;6.95;5.15;;;;;;;20.41;100.00;101812.13;5054292;28;20028;-86
2023/07/10 02:02:01;;;;;;;11.38;5.00;;;;;;;20.39;100.00;101820.25;5063338;28;20031;-86
2023/07/10 02:04:27;;;;;;;7.55;4.97;;;;;;;20.41;100.00;101832.03;5064511;28;20035;-86
2023/07/10 02:06:56;;;;;;;7.63;4.28;;;;;;;20.41;100.00;101839.75;5067378;28;20029;-86
2023/07/10 02:09:27;;;;;;;5.28;3.75;;;;;;;20.36;100.00;101832.47;5062980;28;20028;-86
2023/07/10 02:11:54;;;;;;;8.20;4.40;;;;;;;20.37;100.00;101822.72;5056188;28;20069;-86
2023/07/10 02:14:20;;;;;;;6.45;4.03;;;;;;;20.33;100.00;101827.63;5065629;28;20189;-86
2023/07/10 02:16:46;;;;;;;8.48;4.13;;;;;;;20.28;100.00;101802.50;5061754;28;20025;-85
2023/07/10 02:19:12;;;;;;;7.95;4.70;;;;;;;20.18;100.00;101803.44;5065638;28;20047;-85
2023/07/10 02:21:38;;;;;;;8.30;4.35;;;;;;;20.31;100.00;101832.94;5055160;28;20638;-85
2023/07/10 02:24:04;;;;;;;5.53;2.92;;;;;;;20.37;100.00;101833.28;5060198;28;20036;-86
2023/07/10 02:26:29;;;;;;;12.00;3.70;;;;;;;20.34;100.00;101826.41;5074168;28;20033;-86
2023/07/10 02:28:57;;;;;;;7.93;3.47;;;;;;;20.34;100.00;101825.59;5053309;28;20035;-85
2023/07/10 02:31:22;;;;;;;5.40;3.70;;;;;;;20.31;100.00;101830.91;5057992;28;20034;-85
2023/07/10 02:33:48;;;;;;;4.82;3.30;;;;;;;20.24;100.00;101824.50;5061593;28;20028;-86
2023/07/10 02:36:13;;;;;;;3.90;2.60;;;;;;;20.01;100.00;101803.22;5057177;28;20102;-85
2023/07/10 02:38:39;;;;;;;4.55;2.65;;;;;;;19.93;100.00;101824.38;5054321;28;20039;-85
2023/07/10 02:41:04;;;;;;;5.45;2.80;;;;;;;20.10;100.00;101825.44;5059453;28;20056;-85
2023/07/10 02:43:30;;;;;;;3.28;2.33;;;;;;;20.00;100.00;101818.63;5058182;28;20081;-85
2023/07/10 02:45:55;;;;;;;6.00;3.25;;;;;;;19.92;100.00;101828.44;5055383;28;20021;-86
2023/07/10 02:48:21;;;;;;;4.25;2.65;;;;;;;20.12;100.00;101833.56;5057491;28;20032;-85
2023/07/10 02:50:46;;;;;;;4.70;2.88;;;;;;;19.98;100.00;101828.81;5056754;28;20032;-85
2023/07/10 02:53:12;;;;;;;3.72;2.53;;;;;;;20.02;100.00;101829.59;5051914;28;20108;-87
2023/07/10 02:55:37;;;;;;;4.78;3.38;;;;;;;20.01;100.00;101827.97;5059258;28;20032;-85
2023/07/10 02:58:04;;;;;;;7.18;2.75;;;;;;;20.01;100.00;101837.31;5057386;28;20036;-85
2023/07/10 03:00:30;;;;;;;5.90;2.00;;;;;;;19.84;100.00;101838.28;5054688;28;20496;-86
2023/07/10 03:02:56;;;;;;;3.75;2.42;;;;;;;19.84;100.00;101835.44;5057059;28;20023;-86
2023/07/10 03:05:22;;;;;;;4.93;2.28;;;;;;;20.03;100.00;101853.94;5054443;28;20071;-85
2023/07/10 03:07:48;;;;;;;4.28;1.90;;;;;;;20.07;100.00;101860.38;5055244;28;20044;-85
2023/07/10 03:10:13;;;;;;;3.47;2.20;;;;;;;20.08;100.00;101850.63;5073687;28;20213;-86
2023/07/10 03:12:38;;;;;;;3.78;2.13;;;;;;;20.03;100.00;101856.78;5059692;28;20085;-85
2023/07/10 03:15:05;;;;;;;5.63;2.25;;;;;;;20.02;100.00;101855.97;5054927;28;20028;-85
2023/07/10 03:17:32;;;;;;;4.72;2.20;;;;;;;19.98;100.00;101851.53;5055639;28;20507;-85
2023/07/10 03:19:57;;;;;;;6.93;2.10;;;;;;;19.88;100.00;101847.56;5054298;28;20400;-85
2023/07/10 03:22:22;;;;;;;5.93;1.90;;;;;;;19.92;100.00;101848.34;5054714;28;20028;-85
2023/07/10 03:24:48;;;;;;;3.88;2.50;;;;;;;19.93;100.00;101849.97;5053425;28;20028;-85
2023/07/10 03:27:13;;;;;;;5.22;2.35;;;;;;;19.95;100.00;101852.41;5057527;28;20326;-85
2023/07/10 03:29:39;;;;;;;6.22;2.13;;;;;;;19.97;100.00;101856.41;5055291;28;20024;-85
2023/07/10 03:32:06;;;;;;;2.90;1.50;;;;;;;19.84;100.00;101853.28;5058256;28;20031;-85
2023/07/10 03:34:31;;;;;;;4.25;1.52;;;;;;;19.85;100.00;101862.63;5055528;28;20177;-85
2023/07/10 03:36:57;;;;;;;3.92;1.90;;;;;;;19.94;100.00;101862.94;5055694;28;20036;-85
2023/07/10 03:39:23;;;;;;;2.42;1.98;;;;;;;19.93;100.00;101863.38;5050403;28;20028;-85
2023/07/10 03:41:48;;;;;;;3.67;2.42;;;;;;;19.86;100.00;101867.09;5056663;28;20029;-84
2023/07/10 03:44:16;;;;;;;4.05;1.50;;;;;;;19.89;100.00;101861.34;5057656;28;20046;-84
2023/07/10 03:46:41;;;;;;;2.85;1.88;;;;;;;19.92;100.00;101865.38;5054586;28;20036;-85
2023/07/10 03:49:07;;;;;;;3.30;1.70;;;;;;;19.79;100.00;101861.44;5076987;28;20134;-84
2023/07/10 03:51:32;;;;;;;2.17;1.52;;;;;;;19.86;100.00;101873.56;5064803;28;20025;-85
2023/07/10 03:53:58;;;;;;;4.43;1.55;;;;;;;19.91;100.00;101875.16;5056835;28;20366;-84
2023/07/10 03:56:23;;;;;;;5.57;1.70;;;;;;;19.87;100.00;101875.16;5058284;28;20033;-85
2023/07/10 03:58:49;;;;;;;3.08;1.73;;;;;;;19.65;100.00;101868.84;5061732;28;20029;-85
2023/07/10 04:01:15;;;;;;;2.55;1.50;;;;;;;19.76;100.00;101882.97;5057904;28;20077;-85
2023/07/10 04:03:40;;;;;;;3.58;2.08;;;;;;;19.80;100.00;101880.13;5063246;28;20148;-85
2023/07/10 04:06:08;;;;;;;2.10;1.30;;;;;;;19.73;100.00;101885.84;5059304;28;20476;-85
2023/07/10 04:08:35;;;;;;;4.65;1.63;;;;;;;19.73;100.00;101880.16;5066930;28;20035;-84
2023/07/10 04:11:11;;;;;;;2.17;1.40;;;;;;;19.82;100.00;101889.84;5061577;28;20388;-85
2023/07/10 04:13:37;;;;;;;1.90;1.25;;;;;;;19.84;100.00;101892.25;5060854;28;20036;-85
2023/07/10 04:16:11;;;;;;;3.70;1.65;;;;;;;19.83;100.00;101893.47;5042374;28;20028;-84
2023/07/10 04:18:38;;;;;;;2.72;1.02;;;;;;;19.72;100.00;101884.25;5059905;28;20040;-85
2023/07/10 04:21:25;;;;;;;3.25;1.65;;;;;;;19.81;100.00;101898.75;5073650;28;20032;-85
2023/07/10 04:23:51;;;;;;;2.45;1.42;;;;;;;19.72;100.00;101884.25;5054769;28;20035;-85
2023/07/10 04:26:20;;;;;;;2.92;1.50;;;;;;;19.49;100.00;101888.41;5056839;28;20063;-85
2023/07/10 04:28:47;;;;;;;4.88;1.75;;;;;;;19.52;100.00;101878.25;5054209;28;20035;-85
2023/07/10 04:31:12;;;;;;;2.95;1.33;;;;;;;19.72;100.00;101892.75;5052609;28;20040;-85
2023/07/10 04:33:38;;;;;;;4.97;1.60;;;;;;;19.60;100.00;101896.84;5053820;28;20396;-84
2023/07/10 04:36:03;;;;;;;2.75;1.60;;;;;;;19.61;100.00;101896.44;5058614;28;20128;-84
2023/07/10 04:38:29;;;;;;;3.25;1.40;;;;;;;19.75;100.00;101908.94;5063349;28;20028;-84
2023/07/10 04:41:00;;;;;;;2.75;1.52;;;;;;;19.57;100.00;101889.19;5056653;28;20125;-84
2023/07/10 04:43:28;;;;;;;3.88;1.30;;;;;;;19.77;100.00;101903.66;5055628;28;20020;-84
2023/07/10 04:45:55;;;;;;;2.75;1.60;;;;;;;19.80;100.00;101908.53;5057782;28;20101;-84
2023/07/10 04:48:21;;;;;;;3.70;1.42;;;;;;;19.78;100.00;101910.97;5056143;28;20693;-84
2023/07/10 04:50:51;;;;;;;3.08;1.65;;;;;;;19.76;100.00;101913.44;5054937;28;20028;-84
2023/07/10 04:53:17;;;;;;;2.22;1.38;;;;;;;19.77;100.00;101910.16;5062456;28;20074;-84
2023/07/10 04:55:43;;;;;;;4.82;2.58;;;;;;;19.72;100.00;101912.63;5052168;28;20028;-83
2023/07/10 04:58:10;;;;;;;5.93;1.77;;;;;;;19.74;100.00;101913.03;5072918;28;20025;-84
2023/07/10 05:00:36;;;;;;;2.70;1.65;;;;;;;19.77;100.00;101915.81;5058002;28;20488;-84
2023/07/10 05:03:03;;;;;;;8.27;1.92;;;;;;;19.59;100.00;101926.50;5062882;28;20021;-84
2023/07/10 05:05:28;;;;;;;5.80;2.30;;;;;;;19.49;100.00;101919.66;5060238;28;20748;-84
2023/07/10 05:07:54;;;;;;;4.68;1.75;;;;;;;19.56;100.00;101919.59;5060816;28;20039;-84
2023/07/10 05:10:19;;;;;;;2.53;1.60;;;;;;;19.66;100.00;101915.88;5058836;28;20032;-84
2023/07/10 05:12:45;;;;;;;6.63;2.25;;;;;;;19.54;100.00;101890.78;5059630;28;20028;-84
2023/07/10 05:15:10;;;;;;;5.68;2.17;;;;;;;19.70;100.00;101918.72;5058429;28;20040;-84
2023/07/10 05:17:35;;;;;;;6.88;2.50;;;;;;;19.67;100.00;101916.72;5058856;28;20042;-84
2023/07/10 05:20:01;;;;;;;2.63;1.60;;;;;;;19.68;100.00;101915.47;5053945;28;20067;-83
2023/07/10 05:22:26;;;;;;;3.45;2.15;;;;;;;19.66;100.00;101924.41;5054431;28;20868;-84
2023/07/10 05:24:51;;;;;;;3.05;2.17;;;;;;;;;;5051267;28;20508;-84
2023/07/10 05:27:17;;;;;;;3.22;2.22;;;;;;;19.61;100.00;101912.69;5052108;28;20484;-84
2023/07/10 05:29:43;;;;;;;3.15;2.03;;;;;;;19.73;100.00;101912.19;5052103;28;20082;-84
2023/07/10 05:32:08;;;;;;;6.10;2.85;;;;;;;19.85;100.00;101905.22;5059870;28;20388;-84
2023/07/10 05:34:34;;;;;;;6.03;2.72;;;;;;;19.46;100.00;101909.94;5057393;28;20237;-84
2023/07/10 05:36:59;;;;;;;7.15;2.97;;;;;;;19.33;100.00;101903.09;5061346;28;20025;-84
2023/07/10 05:39:24;;;;;;;7.95;2.90;;;;;;;19.41;100.00;101918.88;5061294;28;20042;-84
2023/07/10 05:41:50;;;;;;;5.47;2.80;;;;;;;19.42;100.00;101899.81;5052083;28;20564;-83
2023/07/10 05:44:15;;;;;;;8.38;3.13;;;;;;;19.51;100.00;101914.34;5055248;28;20093;-83
2023/07/10 05:46:41;;;;;;;8.65;2.75;;;;;;;19.58;100.00;101907.81;5061596;28;20116;-83
2023/07/10 05:49:06;;;;;;;5.70;2.58;;;;;;;19.53;100.00;101917.59;5066571;28;20039;-83
2023/07/10 05:51:34;;;;;;;6.13;2.83;;;;;;;19.52;100.00;101907.44;5065854;28;20029;-83
2023/07/10 05:54:00;;;;;;;4.80;2.47;;;;;;;19.61;100.00;101927.69;5060263;28;20037;-90
2023/07/10 05:56:25;;;;;;;4.60;2.50;;;;;;;19.57;100.00;101901.34;5060972;28;20036;-88
2023/07/10 05:58:51;;;;;;;6.78;2.65;;;;;;;19.75;100.00;101923.16;5063586;28;20035;-87
2023/07/10 06:01:16;;;;;;;5.80;2.58;;;;;;;19.56;100.00;101915.94;5057015;28;20036;-87
2023/07/10 06:03:43;;;;;;;5.45;2.55;;;;;;;19.62;100.00;101929.28;5055083;28;20040;-87
2023/07/10 06:06:08;;;;;;;2.78;2.42;;;;;;;19.39;100.00;101927.00;5054562;28;20036;-88
2023/07/10 06:08:35;;;;;;;4.80;2.80;;;;;;;19.43;100.00;101935.50;5063353;28;20024;-84
2023/07/10 06:11:00;;;;;;;6.28;3.33;;;;;;;19.86;100.00;101933.22;5054345;28;20059;-81
2023/07/10 06:13:26;;;;;;;4.03;2.28;;;;;;;19.81;100.00;101927.19;5062216;28;20755;-82
2023/07/10 06:15:54;;;;;;;4.72;2.47;;;;;;;19.72;100.00;101929.69;5062727;28;20097;-82
2023/07/10 06:18:20;;;;;;;5.18;2.45;;;;;;;19.77;100.00;101927.19;5058042;28;20055;-81
2023/07/10 06:21:04;;;;;;;8.07;2.90;;;;;;;19.69;100.00;101936.94;5055329;28;20040;-78
2023/07/10 06:23:30;;;;;;;5.90;2.42;;;;;;;19.99;100.00;101936.38;5046011;28;20029;-78
2023/07/10 06:25:58;;;;;;;7.13;2.60;;;;;;;20.26;100.00;101939.41;5056452;28;20020;-78
2023/07/10 06:28:24;;;;;;;6.78;2.25;;;;;;;20.24;100.00;101943.91;5060388;28;20035;-78
2023/07/10 06:30:57;;;;;;;3.92;2.40;;;;;;;20.15;100.00;101952.09;5051873;28;20040;-79
2023/07/10 06:33:23;;;;;;;5.35;2.33;;;;;;;20.04;100.00;101940.81;5048788;28;20314;-79
2023/07/10 06:35:48;;;;;;;4.28;2.60;;;;;;;20.24;100.00;101941.84;5056244;28;20488;-81
2023/07/10 06:38:14;;;;;;;9.13;3.03;;;;;;;20.11;100.00;101940.72;5057293;28;20028;-81
2023/07/10 06:40:39;;;;;;;5.43;2.63;;;;;;;20.47;100.00;101940.41;5058239;28;20570;-81
2023/07/10 06:43:05;;;;;;;5.40;2.28;;;;;;;20.95;100.00;101938.72;5055941;28;20029;-80
2023/07/10 06:45:30;;;;;;;6.80;2.78;;;;;;;20.70;100.00;101936.97;5058330;28;20122;-81
2023/07/10 06:47:55;;;;;;;6.25;2.97;;;;;;;20.84;100.00;101945.34;5054195;28;20032;-81
2023/07/10 06:50:21;;;;;;;8.75;2.22;;;;;;;21.25;100.00;101941.63;5064301;28;20040;-80
2023/07/10 06:52:46;;;;;;;4.80;2.58;;;;;;;20.77;100.00;101944.63;5058202;28;20038;-82
2023/07/10 06:55:14;;;;;;;7.75;2.83;;;;;;;20.68;100.00;101945.09;5058805;28;20028;-81
2023/07/10 06:57:40;;;;;;;5.30;2.15;;;;;;;21.02;100.00;101936.59;5061133;28;20161;-81
2023/07/10 07:00:08;;;;;;;4.05;2.33;;;;;;;21.34;100.00;101943.13;5058516;28;20577;-82
2023/07/10 07:02:34;;;;;;;5.72;2.05;;;;;;;21.47;100.00;101944.19;5077239;28;20059;-82
2023/07/10 07:05:00;;;;;;;5.85;1.75;;;;;;;21.77;100.00;101946.19;5060727;28;20527;-82
2023/07/10 07:07:25;;;;;;;6.25;2.45;;;;;;;21.66;100.00;101940.66;5062476;28;20032;-81
2023/07/10 07:09:50;;;;;;;6.22;2.03;;;;;;;21.22;100.00;101938.81;5058772;28;20047;-81
2023/07/10 07:12:16;;;;;;;11.27;2.17;;;;;;;21.63;100.00;101940.69;5063106;28;20052;-81
2023/07/10 07:14:41;;;;;;;5.03;2.10;;;;;;;21.70;100.00;101941.41;5063458;28;20035;-81
2023/07/10 07:17:07;;;;;;;8.40;2.75;;;;;;;22.01;99.52;101949.91;5061803;28;20029;-81
2023/07/10 07:19:33;;;;;;;5.70;2.65;;;;;;;21.61;100.00;101949.69;5058238;28;20454;-80
2023/07/10 07:22:00;;;;;;;3.15;1.67;;;;;;;21.37;100.00;101948.75;5070216;28;20404;-81
2023/07/10 07:24:25;;;;;;;5.57;2.03;;;;;;;21.43;100.00;101943.44;5054207;28;20055;-81
2023/07/10 07:26:51;;;;;;;6.70;2.03;;;;;;;21.78;100.00;101947.81;5051562;28;20028;-81
2023/07/10 07:29:16;;;;;;;3.85;2.53;;;;;;;21.84;100.00;101957.50;5049508;28;20066;-81
2023/07/10 07:31:41;;;;;;;7.30;2.40;;;;;;;21.64;99.68;101959.41;5073533;28;20037;-81
2023/07/10 07:34:07;;;;;;;5.90;2.10;;;;;;;21.58;100.00;101959.09;5059431;28;20078;-80
2023/07/10 07:36:34;;;;;;;5.82;2.22;;;;;;;21.36;100.00;101949.22;5051566;28;20047;-81
2023/07/10 07:39:02;;;;;;;6.10;2.45;;;;;;;21.41;100.00;101958.06;5058553;28;20074;-81
2023/07/10 07:41:27;;;;;;;7.97;3.35;;;;;;;21.40;100.00;101962.16;5052689;28;20373;-80
2023/07/10 07:43:52;;;;;;;5.30;1.90;;;;;;;21.48;100.00;101968.56;5058151;28;20043;-81
2023/07/10 07:46:18;;;;;;;10.27;2.63;;;;;;;21.07;100.00;101958.09;5056659;28;20281;-81
2023/07/10 07:48:43;;;;;;;6.97;2.35;;;;;;;21.34;100.00;101963.06;5056542;28;20629;-81
2023/07/10 07:51:09;;;;;;;6.55;2.70;;;;;;;21.18;100.00;101961.63;5062543;28;20039;-81
2023/07/10 07:53:38;;;;;;;8.50;2.80;;;;;;;21.58;100.00;101967.63;5059736;28;20036;-81
2023/07/10 07:56:04;;;;;;;5.28;1.85;;;;;;;21.17;100.00;101973.44;5061691;28;20374;-83
2023/07/10 07:58:29;;;;;;;7.47;2.42;;;;;;;21.32;100.00;101961.44;5058327;28;20066;-83
2023/07/10 08:00:55;;;;;;;6.00;3.30;;;;;;;21.58;100.00;101975.38;5065130;28;20028;-83
2023/07/10 08:03:20;;;;;;;6.55;2.00;;;;;;;21.63;100.00;101964.31;5063188;28;20306;-82
2023/07/10 08:05:46;;;;;;;5.95;2.58;;;;;;;21.58;100.00;101969.69;5060497;28;20093;-82
2023/07/10 08:08:11;;;;;;;5.20;2.53;;;;;;;21.47;100.00;101972.69;5061807;28;20032;-81
2023/07/10 08:10:45;;;;;;;3.92;2.78;;;;;;;21.51;100.00;101973.44;5062997;28;20028;-81
2023/07/10 08:13:12;;;;;;;4.72;2.30;;;;;;;21.34;100.00;101969.56;5063079;28;20295;-81
2023/07/10 08:15:38;;;;;;;7.72;2.67;;;;;;;21.41;100.00;101962.97;5060632;28;20032;-81
2023/07/10 08:18:04;;;;;;;6.50;2.47;;;;;;;21.52;100.00;101960.78;5061368;28;20473;-81
2023/07/10 08:20:30;;;;;;;8.88;2.85;;;;;;;21.51;100.00;101956.34;5059937;28;20056;-81
2023/07/10 08:22:56;;;;;;;6.90;2.78;;;;;;;21.75;100.00;101967.81;5057285;28;21142;-81
2023/07/10 08:25:21;;;;;;;7.28;2.25;;;;;;;21.69;98.71;101967.47;5054546;28;20028;-82
2023/07/10 08:27:47;;;;;;;8.07;2.80;;;;;;;21.76;100.00;101960.84;5073975;28;20416;-81
2023/07/10 08:30:13;;;;;;;8.07;2.95;;;;;;;21.40;100.00;101961.34;5058207;28;20153;-82
2023/07/10 08:32:40;;;;;;;7.13;2.13;;;;;;;21.69;100.00;101961.78;5072425;28;20334;-81
2023/07/10 08:35:07;;;;;;;7.40;2.65;;;;;;;21.82;100.00;101959.13;5057435;28;20032;-82
2023/07/10 08:37:38;;;;;;;5.47;2.13;;;;;;;21.99;98.73;101962.94;5059804;28;20515;-81
2023/07/10 08:40:06;;;;;;;7.20;2.37;;;;;;;22.00;96.73;101968.22;5073348;28;20055;-82
2023/07/10 08:42:32;;;;;;;5.82;2.38;;;;;;;21.95;99.09;101971.59;5060559;28;20369;-81
2023/07/10 08:44:59;;;;;;;5.35;2.20;;;;;;;22.05;100.00;101978.34;5054563;28;20526;-82
2023/07/10 08:47:32;;;;;;;7.82;2.65;;;;;;;22.12;98.27;101966.84;5055973;28;20032;-82
2023/07/10 08:50:06;;;;;;;12.40;2.42;;;;;;;22.29;99.75;101982.06;5058979;28;20499;-82
2023/07/10 08:52:41;;;;;;;10.70;2.65;;;;;;;22.15;97.04;101973.72;5057816;28;20032;-82
2023/07/10 08:55:23;;;;;;;9.32;3.33;;;;;;;22.19;97.76;101977.31;5054615;28;20028;-82
2023/07/10 08:57:55;;;;;;;5.05;2.28;;;;;;;22.31;95.13;101980.38;5058589;28;20028;-81
2023/07/10 09:00:21;;;;;;;7.07;2.40;;;;;;;22.24;94.62;101973.97;5047782;28;20040;-82
2023/07/10 09:03:01;;;;;;;3.78;1.90;;;;;;;22.18;93.25;101976.50;5074212;28;20388;-82
2023/07/10 09:05:29;;;;;;;6.57;2.55;;;;;;;22.37;95.77;101982.72;5073782;28;20480;-82
2023/07/10 09:08:00;;;;;;;9.40;2.05;;;;;;;22.35;98.34;101977.47;5062066;28;20476;-82
2023/07/10 09:10:38;;;;;;;6.72;2.05;;;;;;;22.58;96.58;101981.53;5055098;28;20039;-82
2023/07/10 09:13:05;;;;;;;7.75;2.40;;;;;;;22.49;92.89;101971.53;5059793;28;20467;-82
2023/07/10 09:15:35;;;;;;;5.38;2.53;;;;;;;22.50;94.23;101970.28;5059604;28;20060;-83
2023/07/10 09:18:34;;;;;;;9.93;2.38;;;;;;;22.40;92.67;101982.69;5063762;28;20085;-83
2023/07/10 09:21:06;;;;;;;7.97;2.15;;;;;;;22.71;91.89;101977.63;5059859;28;20051;-82
2023/07/10 09:23:33;;;;;;;9.65;2.63;;;;;;;22.81;91.16;101981.53;5060455;28;20392;-82
2023/07/10 09:26:10;;;;;;;5.72;2.78;;;;;;;22.81;89.03;101972.97;5060645;28;20419;-82
2023/07/10 09:28:38;;;;;;;7.50;2.33;;;;;;;22.75;90.38;101974.72;5061811;28;20039;-82
2023/07/10 09:31:26;;;;;;;8.23;2.13;;;;;;;22.84;93.98;101982.72;5059710;28;20028;-83
2023/07/10 09:33:58;;;;;;;9.45;2.55;;;;;;;22.62;90.44;101979.44;5063174;28;20582;-82
2023/07/10 09:36:23;;;;;;;10.70;2.58;;;;;;;22.64;93.67;101980.63;5063229;28;20040;-82
2023/07/10 09:38:51;;;;;;;10.02;4.15;;;;;;;22.85;90.43;101979.44;5059774;28;20429;-82
2023/07/10 09:41:27;;;;;;;7.70;2.47;;;;;;;22.87;91.17;101974.06;5075914;28;20028;-83
2023/07/10 09:44:14;;;;;;;5.35;2.08;;;;;;;23.02;92.06;101970.97;5057801;28;20765;-81
2023/07/10 09:46:40;;;;;;;4.97;1.90;;;;;;;23.11;91.56;101974.06;5064023;28;20051;-82
2023/07/10 09:49:34;;;;;;;6.80;2.10;;;;;;;23.18;89.85;101973.09;5062558;28;20489;-82
2023/07/10 09:52:12;;;;;;;3.08;1.98;;;;;;;23.20;87.98;101976.31;5060248;28;20397;-82
2023/07/10 09:54:39;;;;;;;5.97;2.03;;;;;;;23.16;86.43;101967.81;5063692;28;20522;-80
2023/07/10 09:57:31;;;;;;;8.90;2.67;;;;;;;23.28;88.03;101981.44;5063758;28;20036;-82
2023/07/10 09:59:59;;;;;;;5.67;2.27;;;;;;;23.22;87.36;101980.34;5059580;28;20045;-81
2023/07/10 10:02:42;;;;;;;5.18;1.90;;;;;;;23.20;85.84;101982.03;5062984;28;20027;-82
2023/07/10 10:05:11;;;;;;;4.85;2.28;;;;;;;23.40;84.43;101990.59;5063096;28;20021;-82
2023/07/10 10:07:46;;;;;;;8.55;2.47;;;;;;;23.21;83.03;101981.59;5078886;28;20123;-82
2023/07/10 10:10:24;;;;;;;9.32;2.97;;;;;;;23.64;86.77;101986.38;5063453;28;20471;-81
2023/07/10 10:13:12;;;;;;;7.57;2.22;;;;;;;23.62;82.00;101997.44;5077868;28;20547;-80
2023/07/10 10:15:57;;;;;;;6.90;2.20;;;;;;;23.33;86.04;101991.53;5066598;28;20033;-80
2023/07/10 10:18:49;;;;;;;3.25;1.83;;;;;;;23.48;87.61;102003.47;5063444;28;20055;-80
2023/07/10 10:21:17;;;;;;;6.25;2.35;;;;;;;23.59;85.90;101997.53;5068928;28;20488;-81
2023/07/10 10:23:45;;;;;;;11.70;2.17;;;;;;;23.64;82.93;102003.53;5056129;28;20078;-80
2023/07/10 10:26:26;;;;;;;6.95;2.20;;;;;;;23.74;79.85;101993.13;5059905;28;20039;-80
2023/07/10 10:29:24;;;;;;;7.80;2.15;;;;;;;23.98;80.14;102004.44;5079472;28;20499;-79
2023/07/10 10:32:07;;;;;;;4.57;2.00;;;;;;;24.15;78.05;102001.13;5059068;28;20028;-79
2023/07/10 10:34:55;;;;;;;5.53;1.85;;;;;;;24.01;85.57;101994.97;5075150;28;20404;-80
2023/07/10 10:37:34;;;;;;;6.55;3.10;;;;;;;24.09;77.25;101994.34;5062712;28;20032;-80
2023/07/10 10:40:09;;;;;;;5.63;1.90;;;;;;;24.29;79.52;101982.03;5061056;28;20447;-80
2023/07/10 10:42:43;;;;;;;7.07;2.15;;;;;;;24.17;78.43;101991.31;5062866;28;20415;-80
2023/07/10 10:45:15;;;;;;;6.18;1.98;;;;;;;24.05;80.93;101995.69;5073590;28;20408;-79
2023/07/10 10:47:52;;;;;;;5.97;1.50;;;;;;;24.41;81.21;101994.78;5059566;28;20035;-80
2023/07/10 10:50:33;;;;;;;4.60;1.65;;;;;;;24.18;74.27;101995.78;5071101;28;20055;-80
2023/07/10 10:53:01;;;;;;;5.03;2.53;;;;;;;24.28;78.49;101992.66;5060008;28;20542;-80
2023/07/10 10:55:32;;;;;;;3.92;1.85;;;;;;;24.18;74.20;101987.19;5062993;28;20469;-80
2023/07/10 10:58:05;;;;;;;4.93;1.88;;;;;;;24.32;79.37;102006.88;5076463;28;20020;-79
2023/07/10 11:00:57;;;;;;;7.28;1.98;;;;;;;24.19;76.05;101995.34;5061688;28;20024;-79
2023/07/10 11:03:26;;;;;;;4.15;2.00;;;;;;;24.19;72.96;102003.13;5051801;28;20392;-80
2023/07/10 11:05:56;;;;;;;6.63;1.40;;;;;;;24.27;75.83;101998.84;5054370;28;20044;-80
2023/07/10 11:08:30;;;;;;;2.67;1.20;;;;;;;24.38;73.65;101996.50;5053623;28;20734;-80
2023/07/10 11:10:57;;;;;;;10.13;2.45;;;;;;;24.36;74.48;101993.28;5054150;28;20020;-80
2023/07/10 11:13:31;;;;;;;4.00;1.20;;;;;;;24.09;72.88;102002.91;5059678;28;21242;-79
2023/07/10 11:15:57;;;;;;;5.55;1.50;;;;;;;24.13;74.53;101997.13;5058442;28;20103;-80
2023/07/10 11:18:24;;;;;;;3.33;1.27;;;;;;;24.40;73.35;101987.47;5052733;28;20389;-79
2023/07/10 11:20:50;;;;;;;5.88;1.65;;;;;;;24.64;74.01;101999.53;5054859;28;20044;-79
2023/07/10 11:23:35;;;;;;;5.65;1.60;;;;;;;24.33;70.55;101999.91;5053110;28;20032;-80
2023/07/10 11:26:12;;;;;;;6.10;2.15;;;;;;;24.26;69.72;102000.06;5054057;28;20036;-81